createdAt,value
2022-07-30T00:01:37.765Z,13.10
2022-07-30T00:04:05.256Z,12.57
2022-07-30T00:06:32.863Z,12.50
2022-07-30T00:09:00.142Z,12.10
2022-07-30T00:11:28.168Z,12.63
2022-07-30T00:13:55.965Z,13.25
2022-07-30T00:16:23.604Z,12.27
2022-07-30T00:18:50.853Z,13.93
2022-07-30T00:21:36.272Z,13.90
2022-07-30T00:24:08.545Z,13.55
2022-07-30T00:26:35.926Z,13.00
2022-07-30T00:29:04.104Z,13.35
2022-07-30T00:31:31.868Z,12.68
2022-07-30T00:33:59.100Z,13.15
2022-07-30T00:36:26.365Z,12.90
2022-07-30T00:38:53.619Z,12.98
2022-07-30T00:41:21.967Z,11.95
2022-07-30T00:43:49.294Z,13.23
2022-07-30T00:46:16.541Z,12.65
2022-07-30T00:48:44.323Z,13.23
2022-07-30T00:51:11.946Z,12.48
2022-07-30T00:53:39.163Z,13.27
2022-07-30T00:56:06.532Z,12.90
2022-07-30T00:58:33.852Z,12.30
2022-07-30T01:01:01.210Z,12.55
2022-07-30T01:03:28.946Z,12.95
2022-07-30T01:05:56.393Z,12.82
2022-07-30T01:08:23.607Z,12.68
2022-07-30T01:10:52.404Z,12.73
2022-07-30T01:13:19.735Z,12.13
2022-07-30T01:15:47.905Z,12.95
2022-07-30T01:18:16.142Z,12.60
2022-07-30T01:21:07.588Z,12.82
2022-07-30T01:23:44.089Z,12.80
2022-07-30T01:26:14.980Z,13.07
2022-07-30T01:28:46.476Z,13.13
2022-07-30T01:31:14.839Z,12.43
2022-07-30T01:33:47.630Z,12.35
2022-07-30T01:36:20.901Z,11.93
2022-07-30T01:38:51.317Z,12.60
2022-07-30T01:41:20.458Z,12.90
2022-07-30T01:43:48.942Z,12.40
2022-07-30T01:46:17.785Z,12.45
2022-07-30T01:48:48.462Z,11.90
2022-07-30T01:51:19.362Z,12.88
2022-07-30T01:56:24.675Z,11.95
2022-07-30T01:58:55.557Z,12.23
2022-07-30T02:01:25.790Z,11.90
2022-07-30T02:04:00.514Z,11.50
2022-07-30T02:06:37.308Z,11.68
2022-07-30T02:09:10.774Z,11.95
2022-07-30T02:12:07.790Z,11.35
2022-07-30T02:17:45.188Z,11.38
2022-07-30T02:20:14.641Z,11.50
2022-07-30T02:22:47.293Z,10.98
2022-07-30T02:25:20.681Z,10.52
2022-07-30T02:27:56.534Z,10.67
2022-07-30T02:30:28.048Z,10.93
2022-07-30T02:33:02.322Z,10.50
2022-07-30T02:37:59.874Z,9.85
2022-07-30T02:40:28.520Z,10.43
2022-07-30T02:42:57.158Z,10.57
2022-07-30T02:45:28.114Z,10.95
2022-07-30T02:48:01.184Z,10.88
2022-07-30T02:50:29.227Z,10.43
2022-07-30T02:52:59.460Z,11.02
2022-07-30T02:55:29.341Z,10.25
2022-07-30T02:57:57.542Z,10.73
2022-07-30T03:00:27.309Z,10.63
2022-07-30T03:02:57.154Z,10.43
2022-07-30T03:05:26.553Z,10.27
2022-07-30T03:07:57.781Z,10.45
2022-07-30T03:10:26.232Z,10.50
2022-07-30T03:12:54.009Z,10.95
2022-07-30T03:15:21.446Z,10.40
2022-07-30T03:17:55.559Z,10.30
2022-07-30T03:20:29.654Z,10.70
2022-07-30T03:22:59.613Z,10.63
2022-07-30T03:25:32.203Z,10.43
2022-07-30T03:28:03.836Z,10.93
2022-07-30T03:30:33.641Z,10.90
2022-07-30T03:33:02.517Z,10.45
2022-07-30T03:35:31.353Z,10.18
2022-07-30T03:38:00.603Z,10.40
2022-07-30T03:40:28.868Z,10.77
2022-07-30T03:42:56.892Z,10.88
2022-07-30T03:45:26.581Z,10.70
2022-07-30T03:48:00.084Z,10.50
2022-07-30T03:50:29.196Z,9.82
2022-07-30T03:52:56.846Z,9.73
2022-07-30T03:55:25.979Z,9.95
2022-07-30T03:58:11.820Z,9.80
2022-07-30T04:00:40.697Z,10.88
2022-07-30T04:03:08.506Z,9.77
2022-07-30T04:05:48.182Z,9.93
2022-07-30T04:08:16.257Z,9.02
2022-07-30T04:10:44.439Z,8.93
2022-07-30T04:13:17.749Z,9.43
2022-07-30T04:16:40.927Z,9.52
2022-07-30T04:19:11.188Z,9.13
2022-07-30T04:21:41.530Z,8.95
2022-07-30T04:24:12.775Z,10.57
2022-07-30T04:26:40.639Z,9.25
2022-07-30T04:29:13.497Z,10.30
2022-07-30T04:31:42.191Z,10.63
2022-07-30T04:34:49.195Z,10.02
2022-07-30T04:37:24.400Z,10.15
2022-07-30T04:39:54.834Z,8.68
2022-07-30T04:42:22.742Z,9.88
2022-07-30T04:45:00.723Z,9.40
2022-07-30T04:47:32.757Z,7.72
2022-07-30T04:50:24.447Z,8.10
2022-07-30T04:52:56.088Z,9.30
2022-07-30T04:55:34.519Z,8.20
2022-07-30T04:58:03.411Z,8.48
2022-07-30T05:00:40.472Z,8.10
2022-07-30T05:03:13.310Z,8.93
2022-07-30T05:08:13.255Z,8.15
2022-07-30T05:10:41.396Z,8.95
2022-07-30T05:13:14.375Z,7.45
2022-07-30T05:15:44.818Z,7.45
2022-07-30T05:18:13.952Z,7.82
2022-07-30T05:20:43.712Z,7.70
2022-07-30T05:23:21.665Z,8.80
2022-07-30T05:26:11.923Z,7.80
2022-07-30T05:28:44.219Z,8.35
2022-07-30T05:31:16.513Z,7.97
2022-07-30T05:33:56.890Z,7.82
2022-07-30T05:36:35.461Z,7.70
2022-07-30T05:39:03.795Z,8.70
2022-07-30T05:41:39.109Z,8.63
2022-07-30T05:44:20.793Z,8.50
2022-07-30T05:46:52.026Z,8.43
2022-07-30T05:49:20.093Z,8.88
2022-07-30T05:51:47.497Z,8.45
2022-07-30T05:54:18.022Z,8.75
2022-07-30T05:57:08.042Z,8.90
2022-07-30T05:59:38.573Z,8.90
2022-07-30T06:02:10.114Z,8.93
2022-07-30T06:04:57.711Z,8.43
2022-07-30T06:07:25.742Z,8.43
2022-07-30T06:10:00.017Z,8.45
2022-07-30T06:12:29.069Z,8.70
2022-07-30T06:14:56.905Z,8.32
2022-07-30T06:17:39.764Z,8.32
2022-07-30T06:20:21.350Z,10.65
2022-07-30T06:23:08.824Z,8.90
2022-07-30T06:26:02.341Z,8.98
2022-07-30T06:28:38.788Z,7.65
2022-07-30T06:31:16.443Z,7.43
2022-07-30T06:33:43.903Z,7.80
2022-07-30T06:36:14.197Z,7.72
2022-07-30T06:39:14.166Z,7.72
2022-07-30T06:41:54.679Z,7.75
2022-07-30T06:44:23.094Z,7.43
2022-07-30T06:47:09.190Z,6.95
2022-07-30T06:49:39.443Z,7.57
2022-07-30T06:52:09.753Z,7.15
2022-07-30T06:54:37.021Z,6.80
2022-07-30T06:57:15.562Z,7.43
2022-07-30T06:59:56.319Z,8.15
2022-07-30T07:02:39.700Z,6.93
2022-07-30T07:05:12.575Z,8.77
2022-07-30T07:07:56.508Z,7.45
2022-07-30T07:10:27.716Z,8.27
2022-07-30T07:13:07.482Z,6.75
2022-07-30T07:15:37.609Z,7.82
2022-07-30T07:18:09.006Z,7.53
2022-07-30T07:20:39.077Z,7.18
2022-07-30T07:23:12.282Z,6.43
2022-07-30T07:25:41.730Z,6.28
2022-07-30T07:28:11.591Z,6.30
2022-07-30T07:30:42.086Z,6.20
2022-07-30T07:33:10.077Z,6.18
2022-07-30T07:35:48.481Z,6.90
2022-07-30T07:38:22.666Z,7.07
2022-07-30T07:40:51.047Z,7.75
2022-07-30T07:43:18.740Z,7.65
2022-07-30T07:45:46.318Z,7.30
2022-07-30T07:48:14.127Z,6.60
2022-07-30T07:50:59.964Z,6.50
2022-07-30T07:53:30.347Z,6.90
2022-07-30T07:55:58.833Z,6.85
2022-07-30T07:58:26.889Z,6.63
2022-07-30T08:00:58.504Z,6.07
2022-07-30T08:03:45.747Z,6.40
2022-07-30T08:06:39.329Z,6.68
2022-07-30T08:09:24.801Z,6.55
2022-07-30T08:12:17.990Z,7.45
2022-07-30T08:15:04.376Z,6.13
2022-07-30T08:17:51.902Z,5.13
2022-07-30T08:20:24.976Z,5.80
2022-07-30T08:22:52.636Z,6.18
2022-07-30T08:25:24.305Z,6.47
2022-07-30T08:27:52.699Z,6.95
2022-07-30T08:30:20.702Z,6.45
2022-07-30T08:32:48.218Z,5.65
2022-07-30T08:35:15.631Z,6.93
2022-07-30T08:37:43.024Z,6.57
2022-07-30T08:40:10.955Z,6.43
2022-07-30T08:42:49.777Z,7.25
2022-07-30T08:45:18.254Z,6.07
2022-07-30T08:47:47.124Z,6.63
2022-07-30T08:50:23.081Z,5.90
2022-07-30T08:53:17.612Z,6.07
2022-07-30T08:55:46.056Z,6.03
2022-07-30T08:58:35.032Z,6.38
2022-07-30T09:01:05.198Z,5.70
2022-07-30T09:03:33.097Z,6.32
2022-07-30T09:06:03.465Z,6.45
2022-07-30T09:08:31.322Z,4.95
2022-07-30T09:10:59.737Z,6.65
2022-07-30T09:13:31.048Z,6.30
2022-07-30T09:16:00.530Z,6.43
2022-07-30T09:18:35.955Z,7.30
2022-07-30T09:24:11.370Z,7.18
2022-07-30T09:26:56.362Z,5.88
2022-07-30T09:29:59.966Z,5.70
2022-07-30T09:32:51.648Z,6.30
2022-07-30T09:35:44.870Z,6.90
2022-07-30T09:38:13.127Z,6.65
2022-07-30T09:40:57.801Z,5.85
2022-07-30T09:43:51.792Z,6.70
2022-07-30T09:46:48.062Z,6.53
2022-07-30T09:49:37.317Z,6.55
2022-07-30T09:52:04.777Z,8.15
2022-07-30T09:54:52.583Z,8.27
2022-07-30T09:57:27.343Z,8.45
2022-07-30T10:00:23.711Z,8.98
2022-07-30T10:03:41.768Z,8.82
2022-07-30T10:06:34.538Z,8.60
2022-07-30T10:09:14.300Z,8.68
2022-07-30T10:11:45.028Z,8.73
2022-07-30T10:14:12.943Z,8.05
2022-07-30T10:16:41.647Z,9.20
2022-07-30T10:19:13.652Z,9.32
2022-07-30T10:22:24.844Z,9.35
2022-07-30T10:25:29.382Z,9.23
2022-07-30T10:28:20.713Z,8.02
2022-07-30T10:30:51.144Z,8.68
2022-07-30T10:33:34.866Z,7.75
2022-07-30T10:36:05.236Z,8.07
2022-07-30T10:38:39.151Z,8.13
2022-07-30T10:41:42.973Z,7.85
2022-07-30T10:44:29.969Z,8.30
2022-07-30T10:47:07.646Z,8.63
2022-07-30T10:49:41.543Z,8.45
2022-07-30T10:52:11.165Z,8.32
2022-07-30T10:54:47.472Z,8.18
2022-07-30T10:57:31.729Z,9.25
2022-07-30T11:00:00.765Z,9.45
2022-07-30T11:02:35.534Z,9.15
2022-07-30T11:05:44.096Z,9.15
2022-07-30T11:08:35.734Z,9.43
2022-07-30T11:12:15.956Z,9.38
2022-07-30T11:14:18.212Z,10.32
2022-07-30T11:16:51.332Z,10.15
2022-07-30T11:19:53.145Z,9.77
2022-07-30T11:22:27.239Z,10.63
2022-07-30T11:24:55.116Z,10.60
2022-07-30T11:27:36.195Z,10.80
2022-07-30T11:30:08.200Z,9.40
2022-07-30T11:32:36.778Z,9.73
2022-07-30T11:35:24.444Z,11.20
2022-07-30T11:38:18.915Z,9.73
2022-07-30T11:43:19.645Z,11.30
2022-07-30T11:45:49.485Z,10.77
2022-07-30T11:48:19.332Z,9.57
2022-07-30T11:50:48.497Z,10.57
2022-07-30T11:53:20.692Z,10.48
2022-07-30T11:55:54.340Z,11.90
2022-07-30T11:58:28.405Z,11.10
2022-07-30T12:03:26.801Z,10.75
2022-07-30T12:06:07.245Z,11.63
2022-07-30T12:08:42.278Z,11.10
2022-07-30T12:11:10.712Z,10.68
2022-07-30T12:13:42.868Z,9.57
2022-07-30T12:16:16.674Z,9.52
2022-07-30T12:18:46.941Z,11.15
2022-07-30T12:21:17.860Z,11.07
2022-07-30T12:23:59.581Z,11.43
2022-07-30T12:26:30.086Z,12.85
2022-07-30T12:28:59.526Z,13.48
2022-07-30T12:31:27.899Z,13.00
2022-07-30T12:33:59.159Z,13.05
2022-07-30T12:36:36.200Z,13.18
2022-07-30T12:39:06.607Z,12.77
2022-07-30T12:41:45.534Z,12.27
2022-07-30T12:44:36.722Z,11.35
2022-07-30T12:47:06.537Z,11.27
2022-07-30T12:49:36.632Z,12.07
2022-07-30T12:52:29.341Z,11.52
2022-07-30T12:55:12.330Z,11.38
2022-07-30T12:57:58.229Z,11.20
2022-07-30T13:00:47.064Z,11.05
2022-07-30T13:03:26.140Z,11.00
2022-07-30T13:05:57.389Z,10.65
2022-07-30T13:08:45.552Z,10.90
2022-07-30T13:11:13.220Z,11.40
2022-07-30T13:13:40.583Z,10.00
2022-07-30T13:16:07.967Z,9.50
2022-07-30T13:18:36.321Z,9.95
2022-07-30T13:21:05.325Z,10.27
2022-07-30T13:23:32.683Z,10.07
2022-07-30T13:26:00.108Z,10.40
2022-07-30T13:28:28.114Z,9.00
2022-07-30T13:30:56.903Z,9.27
2022-07-30T13:33:24.630Z,7.95
2022-07-30T13:35:52.233Z,8.50
2022-07-30T13:38:19.403Z,8.93
2022-07-30T13:40:46.753Z,9.13
2022-07-30T13:43:14.105Z,7.82
2022-07-30T13:45:41.495Z,7.68
2022-07-30T13:48:08.697Z,7.18
2022-07-30T13:50:35.972Z,6.57
2022-07-30T13:53:03.349Z,6.85
2022-07-30T13:55:30.919Z,7.50
2022-07-30T13:57:58.380Z,7.43
2022-07-30T14:00:25.692Z,7.78
2022-07-30T14:02:52.957Z,7.53
2022-07-30T14:05:20.243Z,7.68
2022-07-30T14:07:47.397Z,8.45
2022-07-30T14:10:14.576Z,6.95
2022-07-30T14:12:41.746Z,7.22
2022-07-30T14:15:09.888Z,7.35
2022-07-30T14:17:37.137Z,7.72
2022-07-30T14:20:04.992Z,7.07
2022-07-30T14:22:32.291Z,6.63
2022-07-30T14:25:00.397Z,6.47
2022-07-30T14:27:27.589Z,6.82
2022-07-30T14:29:54.757Z,6.57
2022-07-30T14:32:23.486Z,7.20
2022-07-30T14:34:50.963Z,6.32
2022-07-30T14:37:18.404Z,6.68
2022-07-30T14:39:45.589Z,6.45
2022-07-30T14:42:12.965Z,6.35
2022-07-30T14:44:41.623Z,5.90
2022-07-30T14:47:09.488Z,5.18
2022-07-30T14:49:36.886Z,5.90
2022-07-30T14:52:04.146Z,5.60
2022-07-30T14:54:31.550Z,5.68
2022-07-30T14:56:58.867Z,5.82
2022-07-30T14:59:27.717Z,5.90
2022-07-30T15:01:56.146Z,5.93
2022-07-30T15:04:23.689Z,5.75
2022-07-30T15:06:50.981Z,6.15
2022-07-30T15:09:21.828Z,6.18
2022-07-30T15:12:08.338Z,6.03
2022-07-30T15:14:40.278Z,6.35
2022-07-30T15:17:08.601Z,5.70
2022-07-30T15:19:35.762Z,6.38
2022-07-30T15:22:04.080Z,6.13
2022-07-30T15:24:34.332Z,6.25
2022-07-30T15:27:01.548Z,6.88
2022-07-30T15:29:30.186Z,6.60
2022-07-30T15:32:00.265Z,8.15
2022-07-30T15:34:28.559Z,6.57
2022-07-30T15:36:56.009Z,9.77
2022-07-30T15:39:23.711Z,8.13
2022-07-30T15:41:53.980Z,9.05
2022-07-30T15:44:21.241Z,8.55
2022-07-30T15:46:48.401Z,10.15
2022-07-30T15:49:15.665Z,7.68
2022-07-30T15:51:48.563Z,7.85
2022-07-30T15:54:22.810Z,5.88
2022-07-30T15:56:54.557Z,7.00
2022-07-30T15:59:29.339Z,7.00
2022-07-30T16:01:56.707Z,7.72
2022-07-30T16:04:31.794Z,11.23
2022-07-30T16:07:00.989Z,10.55
2022-07-30T16:09:28.426Z,11.85
2022-07-30T16:11:55.991Z,15.63
2022-07-30T16:14:23.510Z,15.65
2022-07-30T16:16:52.773Z,13.57
2022-07-30T16:19:19.991Z,11.90
2022-07-30T16:21:47.186Z,14.30
2022-07-30T16:24:14.376Z,14.55
2022-07-30T16:26:41.976Z,11.68
2022-07-30T16:29:13.557Z,10.02
2022-07-30T16:31:41.543Z,10.40
2022-07-30T16:34:08.719Z,9.80
2022-07-30T16:36:36.109Z,10.98
2022-07-30T16:39:04.116Z,10.45
2022-07-30T16:41:31.374Z,9.38
2022-07-30T16:43:58.698Z,10.40
2022-07-30T16:46:26.056Z,8.70
2022-07-30T16:48:53.331Z,9.93
2022-07-30T16:51:20.765Z,11.10
2022-07-30T16:53:48.752Z,11.13
2022-07-30T16:56:16.752Z,10.77
2022-07-30T16:58:44.337Z,11.35
2022-07-30T17:01:11.637Z,9.80
2022-07-30T17:03:38.882Z,9.73
2022-07-30T17:06:06.150Z,10.27
2022-07-30T17:08:33.474Z,12.70
2022-07-30T17:11:00.685Z,11.30
2022-07-30T17:13:28.405Z,11.35
2022-07-30T17:15:55.618Z,12.48
2022-07-30T17:18:24.178Z,12.32
2022-07-30T17:20:52.044Z,11.55
2022-07-30T17:23:19.246Z,9.88
2022-07-30T17:25:46.505Z,9.60
2022-07-30T17:28:13.874Z,10.40
2022-07-30T17:30:41.117Z,9.77
2022-07-30T17:33:08.529Z,11.05
2022-07-30T17:35:35.802Z,11.45
2022-07-30T17:38:03.262Z,12.35
2022-07-30T17:40:31.835Z,13.32
2022-07-30T17:43:04.169Z,13.68
2022-07-30T17:45:34.361Z,16.42
2022-07-30T17:48:02.446Z,15.40
2022-07-30T17:50:30.431Z,14.88
2022-07-30T17:52:57.872Z,14.05
2022-07-30T17:55:25.965Z,11.32
2022-07-30T17:57:53.066Z,10.65
2022-07-30T18:00:21.353Z,9.15
2022-07-30T18:02:48.964Z,10.30
2022-07-30T18:05:16.313Z,10.77
2022-07-30T18:07:44.434Z,13.82
2022-07-30T18:10:12.905Z,18.38
2022-07-30T18:12:48.320Z,21.25
2022-07-30T18:15:17.586Z,11.20
2022-07-30T18:17:45.385Z,10.80
2022-07-30T18:20:12.836Z,12.40
2022-07-30T18:22:40.897Z,12.73
2022-07-30T18:25:18.572Z,12.07
2022-07-30T18:27:47.847Z,12.20
2022-07-30T18:30:15.786Z,12.43
2022-07-30T18:32:43.983Z,13.23
2022-07-30T18:35:14.530Z,13.60
2022-07-30T18:37:43.513Z,13.50
2022-07-30T18:40:12.799Z,14.95
2022-07-30T18:42:40.008Z,14.32
2022-07-30T18:45:07.829Z,12.98
2022-07-30T18:47:35.164Z,13.73
2022-07-30T18:50:02.568Z,13.63
2022-07-30T18:52:30.296Z,12.63
2022-07-30T18:54:57.496Z,13.20
2022-07-30T18:57:24.688Z,12.85
2022-07-30T18:59:51.948Z,12.93
2022-07-30T19:02:19.375Z,12.93
2022-07-30T19:04:46.611Z,13.68
2022-07-30T19:07:13.850Z,15.02
2022-07-30T19:09:42.910Z,14.93
2022-07-30T19:12:10.145Z,15.43
2022-07-30T19:14:37.774Z,14.27
2022-07-30T19:17:13.937Z,13.82
2022-07-30T19:19:42.669Z,11.38
2022-07-30T19:22:10.140Z,11.45
2022-07-30T19:24:38.390Z,8.30
2022-07-30T19:27:08.179Z,7.53
2022-07-30T19:29:38.720Z,7.03
2022-07-30T19:32:06.475Z,7.07
2022-07-30T19:34:34.690Z,7.57
2022-07-30T19:37:02.080Z,8.48
2022-07-30T19:39:29.294Z,8.60
2022-07-30T19:42:04.091Z,8.13
2022-07-30T19:44:32.393Z,8.95
2022-07-30T19:46:59.898Z,9.35
2022-07-30T19:49:29.632Z,10.25
2022-07-30T19:52:23.696Z,10.65
2022-07-30T19:54:52.849Z,10.48
2022-07-30T19:57:20.641Z,11.98
2022-07-30T19:59:59.930Z,13.50
2022-07-30T20:02:39.521Z,12.20
2022-07-30T20:05:11.048Z,14.13
2022-07-30T20:07:39.785Z,14.38
2022-07-30T20:10:11.127Z,12.98
2022-07-30T20:12:49.178Z,14.05
2022-07-30T20:15:17.439Z,12.55
2022-07-30T20:17:46.363Z,12.73
2022-07-30T20:20:14.762Z,13.40
2022-07-30T20:22:41.962Z,12.88
2022-07-30T20:25:10.959Z,13.57
2022-07-30T20:27:40.339Z,11.95
2022-07-30T20:30:09.479Z,13.80
2022-07-30T20:32:39.940Z,13.77
2022-07-30T20:35:12.000Z,13.90
2022-07-30T20:37:54.848Z,12.55
2022-07-30T20:40:24.488Z,11.77
2022-07-30T20:42:54.730Z,11.80
2022-07-30T20:45:24.684Z,11.15
2022-07-30T20:47:56.517Z,10.13
2022-07-30T20:50:30.412Z,10.07
2022-07-30T20:53:13.336Z,9.45
2022-07-30T20:55:41.316Z,9.48
2022-07-30T20:58:16.525Z,8.23
2022-07-30T21:00:49.823Z,8.35
2022-07-30T21:03:21.963Z,7.57
2022-07-30T21:05:51.275Z,7.68
2022-07-30T21:08:20.275Z,6.10
2022-07-30T21:10:47.753Z,6.18
2022-07-30T21:13:15.268Z,5.50
2022-07-30T21:15:45.414Z,5.47
2022-07-30T21:18:28.666Z,5.95
2022-07-30T21:20:56.987Z,5.43
2022-07-30T21:23:25.086Z,5.25
2022-07-30T21:26:01.445Z,5.07
2022-07-30T21:28:35.132Z,5.03
2022-07-30T21:31:06.978Z,4.93
2022-07-30T21:33:38.697Z,6.03
2022-07-30T21:36:10.446Z,5.25
2022-07-30T21:38:41.793Z,6.32
2022-07-30T21:41:13.888Z,5.50
2022-07-30T21:43:45.980Z,6.07
2022-07-30T21:46:25.076Z,5.68
2022-07-30T21:48:56.672Z,6.30
2022-07-30T21:51:26.672Z,5.93
2022-07-30T21:53:53.983Z,6.38
2022-07-30T21:56:21.291Z,5.90
2022-07-30T21:58:49.134Z,6.50
2022-07-30T22:01:21.691Z,6.40
2022-07-30T22:04:04.569Z,6.32
2022-07-30T22:06:39.510Z,6.47
2022-07-30T22:09:26.268Z,6.47
2022-07-30T22:11:56.855Z,6.10
2022-07-30T22:14:28.114Z,6.28
2022-07-30T22:16:55.527Z,6.10
2022-07-30T22:19:23.336Z,6.43
2022-07-30T22:21:53.298Z,5.65
2022-07-30T22:24:29.916Z,5.95
2022-07-30T22:27:11.585Z,6.57
2022-07-30T22:32:31.085Z,7.60
2022-07-30T22:34:58.823Z,6.43
2022-07-30T22:37:26.725Z,6.75
2022-07-30T22:40:02.029Z,6.78
2022-07-30T22:42:30.373Z,6.90
2022-07-30T22:44:57.661Z,6.10
2022-07-30T22:47:50.705Z,6.97
2022-07-30T22:50:12.532Z,6.20
2022-07-30T22:52:50.162Z,5.75
2022-07-30T22:55:26.520Z,7.07
2022-07-30T22:57:54.347Z,5.80
2022-07-30T23:00:28.141Z,6.60
2022-07-30T23:02:56.923Z,7.20
2022-07-30T23:05:25.102Z,7.78
2022-07-30T23:07:52.501Z,6.90
2022-07-30T23:10:21.066Z,8.07
2022-07-30T23:12:32.684Z,7.10
2022-07-30T23:12:52.001Z,7.43
2022-07-30T23:15:20.213Z,7.57
2022-07-30T23:17:47.941Z,7.80
2022-07-30T23:20:17.700Z,7.25
2022-07-30T23:22:44.958Z,7.43
2022-07-30T23:25:13.217Z,7.30
2022-07-30T23:27:41.404Z,6.80
2022-07-30T23:30:10.255Z,7.30
2022-07-30T23:32:38.451Z,6.13
2022-07-30T23:35:07.304Z,7.47
2022-07-30T23:37:48.036Z,6.95
2022-07-30T23:40:17.285Z,7.13
2022-07-30T23:42:44.584Z,7.65
2022-07-30T23:45:12.022Z,6.70
2022-07-30T23:48:01.263Z,6.72
2022-07-30T23:50:26.371Z,7.57
2022-07-30T23:52:53.699Z,7.00
2022-07-30T23:55:22.390Z,7.47
2022-07-30T23:57:49.558Z,7.82
